sensor_id;sensor_type;location;lat;lon;timestamp;P1;durP1;ratioP1;P2;durP2;ratioP2
4569;SDS011;2297;51.442;6.996;2023-12-14T00:02:14;25.13;;;12.85;;
4569;SDS011;2297;51.442;6.996;2023-12-14T00:04:42;23.13;;;11.57;;
4569;SDS011;2297;51.442;6.996;2023-12-14T00:07:08;23.90;;;12.35;;
4569;SDS011;2297;51.442;6.996;2023-12-14T00:09:35;21.50;;;10.80;;
4569;SDS011;2297;51.442;6.996;2023-12-14T00:12:02;19.85;;;10.90;;
4569;SDS011;2297;51.442;6.996;2023-12-14T00:14:29;19.15;;;11.07;;
4569;SDS011;2297;51.442;6.996;2023-12-14T00:16:56;19.10;;;10.63;;
4569;SDS011;2297;51.442;6.996;2023-12-14T00:19:24;20.65;;;11.43;;
4569;SDS011;2297;51.442;6.996;2023-12-14T00:21:52;20.42;;;10.15;;
4569;SDS011;2297;51.442;6.996;2023-12-14T00:24:18;17.90;;;9.30;;
4569;SDS011;2297;51.442;6.996;2023-12-14T00:26:45;17.50;;;9.60;;
4569;SDS011;2297;51.442;6.996;2023-12-14T00:29:12;19.25;;;10.32;;
4569;SDS011;2297;51.442;6.996;2023-12-14T00:31:39;17.73;;;9.57;;
4569;SDS011;2297;51.442;6.996;2023-12-14T00:34:05;22.45;;;10.10;;
4569;SDS011;2297;51.442;6.996;2023-12-14T00:36:32;19.90;;;10.20;;
4569;SDS011;2297;51.442;6.996;2023-12-14T00:39:00;18.40;;;9.20;;
4569;SDS011;2297;51.442;6.996;2023-12-14T00:41:27;18.55;;;9.52;;
4569;SDS011;2297;51.442;6.996;2023-12-14T00:43:53;16.25;;;9.23;;
4569;SDS011;2297;51.442;6.996;2023-12-14T00:46:20;14.75;;;8.27;;
4569;SDS011;2297;51.442;6.996;2023-12-14T00:48:47;16.48;;;8.35;;
4569;SDS011;2297;51.442;6.996;2023-12-14T00:51:13;14.95;;;8.38;;
4569;SDS011;2297;51.442;6.996;2023-12-14T00:53:40;14.45;;;8.38;;
4569;SDS011;2297;51.442;6.996;2023-12-14T00:56:08;13.50;;;7.63;;
4569;SDS011;2297;51.442;6.996;2023-12-14T00:58:35;14.77;;;8.00;;
4569;SDS011;2297;51.442;6.996;2023-12-14T01:01:02;11.65;;;6.63;;
4569;SDS011;2297;51.442;6.996;2023-12-14T01:03:29;13.73;;;7.60;;
4569;SDS011;2297;51.442;6.996;2023-12-14T01:05:55;15.65;;;7.80;;
4569;SDS011;2297;51.442;6.996;2023-12-14T01:08:22;12.52;;;7.25;;
4569;SDS011;2297;51.442;6.996;2023-12-14T01:10:49;13.40;;;7.90;;
4569;SDS011;2297;51.442;6.996;2023-12-14T01:13:17;13.32;;;8.23;;
4569;SDS011;2297;51.442;6.996;2023-12-14T01:15:43;12.32;;;7.47;;
4569;SDS011;2297;51.442;6.996;2023-12-14T01:18:10;10.45;;;7.00;;
4569;SDS011;2297;51.442;6.996;2023-12-14T01:20:38;10.35;;;6.90;;
4569;SDS011;2297;51.442;6.996;2023-12-14T01:23:04;12.43;;;6.47;;
4569;SDS011;2297;51.442;6.996;2023-12-14T01:25:31;8.77;;;5.65;;
4569;SDS011;2297;51.442;6.996;2023-12-14T01:27:57;9.27;;;5.10;;
4569;SDS011;2297;51.442;6.996;2023-12-14T01:30:26;9.60;;;6.25;;
4569;SDS011;2297;51.442;6.996;2023-12-14T01:32:53;13.25;;;5.93;;
4569;SDS011;2297;51.442;6.996;2023-12-14T01:35:19;8.70;;;5.45;;
4569;SDS011;2297;51.442;6.996;2023-12-14T01:37:46;8.77;;;5.53;;
4569;SDS011;2297;51.442;6.996;2023-12-14T01:40:13;6.60;;;4.63;;
4569;SDS011;2297;51.442;6.996;2023-12-14T01:42:39;7.93;;;5.10;;
4569;SDS011;2297;51.442;6.996;2023-12-14T01:45:12;8.70;;;5.38;;
4569;SDS011;2297;51.442;6.996;2023-12-14T01:47:42;8.27;;;5.13;;
4569;SDS011;2297;51.442;6.996;2023-12-14T01:50:10;10.20;;;5.82;;
4569;SDS011;2297;51.442;6.996;2023-12-14T01:52:36;9.57;;;5.35;;
4569;SDS011;2297;51.442;6.996;2023-12-14T01:55:03;9.90;;;6.05;;
4569;SDS011;2297;51.442;6.996;2023-12-14T01:57:30;11.73;;;6.47;;
4569;SDS011;2297;51.442;6.996;2023-12-14T01:59:57;11.35;;;6.88;;
4569;SDS011;2297;51.442;6.996;2023-12-14T02:02:23;11.50;;;6.82;;
4569;SDS011;2297;51.442;6.996;2023-12-14T02:04:51;13.40;;;7.82;;
4569;SDS011;2297;51.442;6.996;2023-12-14T02:07:18;10.38;;;6.95;;
4569;SDS011;2297;51.442;6.996;2023-12-14T02:09:45;11.63;;;7.30;;
4569;SDS011;2297;51.442;6.996;2023-12-14T02:12:11;11.88;;;6.85;;
4569;SDS011;2297;51.442;6.996;2023-12-14T02:14:38;13.20;;;7.63;;
4569;SDS011;2297;51.442;6.996;2023-12-14T02:17:05;13.65;;;7.70;;
4569;SDS011;2297;51.442;6.996;2023-12-14T02:19:31;19.38;;;9.40;;
4569;SDS011;2297;51.442;6.996;2023-12-14T02:21:59;16.17;;;9.13;;
4569;SDS011;2297;51.442;6.996;2023-12-14T02:24:27;18.30;;;10.15;;
4569;SDS011;2297;51.442;6.996;2023-12-14T02:26:54;17.83;;;9.63;;
4569;SDS011;2297;51.442;6.996;2023-12-14T02:29:20;18.27;;;9.27;;
4569;SDS011;2297;51.442;6.996;2023-12-14T02:31:47;17.98;;;10.25;;
4569;SDS011;2297;51.442;6.996;2023-12-14T02:34:14;17.60;;;9.77;;
4569;SDS011;2297;51.442;6.996;2023-12-14T02:36:40;18.65;;;9.52;;
4569;SDS011;2297;51.442;6.996;2023-12-14T02:39:07;18.52;;;10.13;;
4569;SDS011;2297;51.442;6.996;2023-12-14T02:41:35;17.40;;;10.32;;
4569;SDS011;2297;51.442;6.996;2023-12-14T02:44:02;20.40;;;11.32;;
4569;SDS011;2297;51.442;6.996;2023-12-14T02:46:28;21.70;;;11.18;;
4569;SDS011;2297;51.442;6.996;2023-12-14T02:48:55;21.08;;;11.60;;
4569;SDS011;2297;51.442;6.996;2023-12-14T02:51:22;21.80;;;11.10;;
4569;SDS011;2297;51.442;6.996;2023-12-14T02:53:48;19.52;;;11.05;;
4569;SDS011;2297;51.442;6.996;2023-12-14T02:56:15;21.10;;;11.13;;
4569;SDS011;2297;51.442;6.996;2023-12-14T02:58:43;20.17;;;10.15;;
4569;SDS011;2297;51.442;6.996;2023-12-14T03:01:09;20.02;;;10.60;;
4569;SDS011;2297;51.442;6.996;2023-12-14T03:03:37;21.55;;;10.43;;
4569;SDS011;2297;51.442;6.996;2023-12-14T03:06:04;22.77;;;11.85;;
4569;SDS011;2297;51.442;6.996;2023-12-14T03:08:31;23.02;;;11.13;;
4569;SDS011;2297;51.442;6.996;2023-12-14T03:10:58;22.73;;;11.48;;
4569;SDS011;2297;51.442;6.996;2023-12-14T03:13:25;22.13;;;11.38;;
4569;SDS011;2297;51.442;6.996;2023-12-14T03:15:54;21.73;;;11.20;;
4569;SDS011;2297;51.442;6.996;2023-12-14T03:18:21;22.25;;;11.70;;
4569;SDS011;2297;51.442;6.996;2023-12-14T03:20:47;20.48;;;11.45;;
4569;SDS011;2297;51.442;6.996;2023-12-14T03:23:15;23.80;;;12.27;;
4569;SDS011;2297;51.442;6.996;2023-12-14T03:25:42;26.23;;;12.02;;
4569;SDS011;2297;51.442;6.996;2023-12-14T03:28:09;25.02;;;12.80;;
4569;SDS011;2297;51.442;6.996;2023-12-14T03:30:35;25.73;;;12.52;;
4569;SDS011;2297;51.442;6.996;2023-12-14T03:33:03;29.10;;;13.93;;
4569;SDS011;2297;51.442;6.996;2023-12-14T03:35:32;28.27;;;12.77;;
4569;SDS011;2297;51.442;6.996;2023-12-14T03:37:58;27.90;;;13.52;;
4569;SDS011;2297;51.442;6.996;2023-12-14T03:40:25;31.35;;;13.88;;
4569;SDS011;2297;51.442;6.996;2023-12-14T03:42:52;31.23;;;14.55;;
4569;SDS011;2297;51.442;6.996;2023-12-14T03:45:19;30.92;;;14.90;;
4569;SDS011;2297;51.442;6.996;2023-12-14T03:47:45;27.05;;;13.40;;
4569;SDS011;2297;51.442;6.996;2023-12-14T03:50:13;30.58;;;12.82;;
4569;SDS011;2297;51.442;6.996;2023-12-14T03:52:40;26.77;;;12.48;;
4569;SDS011;2297;51.442;6.996;2023-12-14T03:55:07;23.63;;;11.55;;
4569;SDS011;2297;51.442;6.996;2023-12-14T03:57:34;22.25;;;11.43;;
4569;SDS011;2297;51.442;6.996;2023-12-14T04:00:01;21.65;;;10.60;;
4569;SDS011;2297;51.442;6.996;2023-12-14T04:02:28;17.05;;;8.98;;
4569;SDS011;2297;51.442;6.996;2023-12-14T04:04:55;18.23;;;9.40;;
4569;SDS011;2297;51.442;6.996;2023-12-14T04:07:23;14.88;;;8.20;;
4569;SDS011;2297;51.442;6.996;2023-12-14T04:09:49;15.98;;;7.90;;
4569;SDS011;2297;51.442;6.996;2023-12-14T04:12:16;16.25;;;7.95;;
4569;SDS011;2297;51.442;6.996;2023-12-14T04:14:42;15.57;;;7.75;;
4569;SDS011;2297;51.442;6.996;2023-12-14T04:17:10;17.48;;;8.02;;
4569;SDS011;2297;51.442;6.996;2023-12-14T04:19:37;13.45;;;7.38;;
4569;SDS011;2297;51.442;6.996;2023-12-14T04:22:04;15.52;;;8.60;;
4569;SDS011;2297;51.442;6.996;2023-12-14T04:24:32;15.85;;;8.60;;
4569;SDS011;2297;51.442;6.996;2023-12-14T04:26:59;17.67;;;8.77;;
4569;SDS011;2297;51.442;6.996;2023-12-14T04:29:26;17.02;;;9.13;;
4569;SDS011;2297;51.442;6.996;2023-12-14T04:31:52;15.98;;;8.60;;
4569;SDS011;2297;51.442;6.996;2023-12-14T04:34:19;18.60;;;9.23;;
4569;SDS011;2297;51.442;6.996;2023-12-14T04:36:46;20.27;;;10.40;;
4569;SDS011;2297;51.442;6.996;2023-12-14T04:39:13;20.52;;;10.40;;
4569;SDS011;2297;51.442;6.996;2023-12-14T04:41:41;24.45;;;10.55;;
4569;SDS011;2297;51.442;6.996;2023-12-14T04:44:08;18.77;;;10.27;;
4569;SDS011;2297;51.442;6.996;2023-12-14T04:46:36;20.35;;;10.30;;
4569;SDS011;2297;51.442;6.996;2023-12-14T04:49:15;21.65;;;10.63;;
4569;SDS011;2297;51.442;6.996;2023-12-14T04:51:42;21.02;;;10.85;;
4569;SDS011;2297;51.442;6.996;2023-12-14T04:54:08;23.02;;;11.13;;
4569;SDS011;2297;51.442;6.996;2023-12-14T04:56:35;22.63;;;10.75;;
4569;SDS011;2297;51.442;6.996;2023-12-14T04:59:03;21.10;;;9.85;;
4569;SDS011;2297;51.442;6.996;2023-12-14T05:01:29;20.70;;;10.00;;
4569;SDS011;2297;51.442;6.996;2023-12-14T05:03:56;19.42;;;9.55;;
4569;SDS011;2297;51.442;6.996;2023-12-14T05:06:23;21.90;;;9.75;;
4569;SDS011;2297;51.442;6.996;2023-12-14T05:08:49;21.20;;;10.27;;
4569;SDS011;2297;51.442;6.996;2023-12-14T05:11:16;19.67;;;9.60;;
4569;SDS011;2297;51.442;6.996;2023-12-14T05:13:42;16.98;;;9.18;;
4569;SDS011;2297;51.442;6.996;2023-12-14T05:16:13;19.35;;;9.40;;
4569;SDS011;2297;51.442;6.996;2023-12-14T05:18:40;16.60;;;8.52;;
4569;SDS011;2297;51.442;6.996;2023-12-14T05:21:07;17.25;;;8.73;;
4569;SDS011;2297;51.442;6.996;2023-12-14T05:23:33;20.10;;;9.23;;
4569;SDS011;2297;51.442;6.996;2023-12-14T05:26:00;21.02;;;10.13;;
4569;SDS011;2297;51.442;6.996;2023-12-14T05:28:26;19.77;;;9.85;;
4569;SDS011;2297;51.442;6.996;2023-12-14T05:30:53;20.67;;;10.05;;
4569;SDS011;2297;51.442;6.996;2023-12-14T05:33:21;19.83;;;9.68;;
4569;SDS011;2297;51.442;6.996;2023-12-14T05:35:48;20.30;;;9.52;;
4569;SDS011;2297;51.442;6.996;2023-12-14T05:38:14;21.70;;;10.85;;
4569;SDS011;2297;51.442;6.996;2023-12-14T05:40:41;19.38;;;9.82;;
4569;SDS011;2297;51.442;6.996;2023-12-14T05:43:08;23.02;;;10.02;;
4569;SDS011;2297;51.442;6.996;2023-12-14T05:45:35;19.77;;;10.18;;
4569;SDS011;2297;51.442;6.996;2023-12-14T05:48:01;20.83;;;10.50;;
4569;SDS011;2297;51.442;6.996;2023-12-14T05:50:31;19.90;;;9.65;;
4569;SDS011;2297;51.442;6.996;2023-12-14T05:52:58;22.13;;;10.77;;
4569;SDS011;2297;51.442;6.996;2023-12-14T05:55:24;22.40;;;10.23;;
4569;SDS011;2297;51.442;6.996;2023-12-14T05:57:51;21.67;;;10.73;;
4569;SDS011;2297;51.442;6.996;2023-12-14T06:00:19;27.52;;;11.35;;
4569;SDS011;2297;51.442;6.996;2023-12-14T06:02:46;20.15;;;9.88;;
4569;SDS011;2297;51.442;6.996;2023-12-14T06:05:12;19.58;;;10.15;;
4569;SDS011;2297;51.442;6.996;2023-12-14T06:07:40;21.05;;;9.52;;
4569;SDS011;2297;51.442;6.996;2023-12-14T06:10:07;23.65;;;10.75;;
4569;SDS011;2297;51.442;6.996;2023-12-14T06:12:36;22.55;;;10.73;;
4569;SDS011;2297;51.442;6.996;2023-12-14T06:15:03;26.80;;;11.27;;
4569;SDS011;2297;51.442;6.996;2023-12-14T06:17:31;23.45;;;10.88;;
4569;SDS011;2297;51.442;6.996;2023-12-14T06:19:59;25.02;;;11.50;;
4569;SDS011;2297;51.442;6.996;2023-12-14T06:22:25;26.63;;;12.45;;
4569;SDS011;2297;51.442;6.996;2023-12-14T06:24:53;27.75;;;11.57;;
4569;SDS011;2297;51.442;6.996;2023-12-14T06:27:20;21.38;;;11.05;;
4569;SDS011;2297;51.442;6.996;2023-12-14T06:29:51;21.52;;;10.98;;
4569;SDS011;2297;51.442;6.996;2023-12-14T06:32:18;23.40;;;11.52;;
4569;SDS011;2297;51.442;6.996;2023-12-14T06:34:44;27.05;;;12.57;;
4569;SDS011;2297;51.442;6.996;2023-12-14T06:37:11;29.25;;;13.10;;
4569;SDS011;2297;51.442;6.996;2023-12-14T06:39:38;26.55;;;12.45;;
4569;SDS011;2297;51.442;6.996;2023-12-14T06:42:08;29.70;;;13.43;;
4569;SDS011;2297;51.442;6.996;2023-12-14T06:44:35;35.58;;;14.52;;
4569;SDS011;2297;51.442;6.996;2023-12-14T06:47:01;34.90;;;15.75;;
4569;SDS011;2297;51.442;6.996;2023-12-14T06:49:28;35.85;;;15.00;;
4569;SDS011;2297;51.442;6.996;2023-12-14T06:51:54;38.00;;;16.30;;
4569;SDS011;2297;51.442;6.996;2023-12-14T06:54:21;35.10;;;15.65;;
4569;SDS011;2297;51.442;6.996;2023-12-14T06:56:48;34.63;;;14.95;;
4569;SDS011;2297;51.442;6.996;2023-12-14T06:59:16;35.90;;;15.40;;
4569;SDS011;2297;51.442;6.996;2023-12-14T07:01:42;33.22;;;15.70;;
4569;SDS011;2297;51.442;6.996;2023-12-14T07:04:09;31.67;;;15.13;;
4569;SDS011;2297;51.442;6.996;2023-12-14T07:06:36;28.60;;;13.20;;
4569;SDS011;2297;51.442;6.996;2023-12-14T07:09:02;33.45;;;14.95;;
4569;SDS011;2297;51.442;6.996;2023-12-14T07:11:30;35.17;;;15.88;;
4569;SDS011;2297;51.442;6.996;2023-12-14T07:13:57;35.13;;;15.35;;
4569;SDS011;2297;51.442;6.996;2023-12-14T07:16:25;33.58;;;15.32;;
4569;SDS011;2297;51.442;6.996;2023-12-14T07:18:51;32.17;;;14.75;;
4569;SDS011;2297;51.442;6.996;2023-12-14T07:21:18;34.17;;;15.52;;
4569;SDS011;2297;51.442;6.996;2023-12-14T07:23:44;33.97;;;15.35;;
4569;SDS011;2297;51.442;6.996;2023-12-14T07:26:11;29.73;;;13.50;;
4569;SDS011;2297;51.442;6.996;2023-12-14T07:28:37;27.95;;;12.93;;
4569;SDS011;2297;51.442;6.996;2023-12-14T07:31:04;31.05;;;13.15;;
4569;SDS011;2297;51.442;6.996;2023-12-14T07:33:32;24.75;;;11.52;;
4569;SDS011;2297;51.442;6.996;2023-12-14T07:36:00;22.67;;;11.43;;
4569;SDS011;2297;51.442;6.996;2023-12-14T07:38:27;26.58;;;11.55;;
4569;SDS011;2297;51.442;6.996;2023-12-14T07:40:54;23.25;;;10.57;;
4569;SDS011;2297;51.442;6.996;2023-12-14T07:43:20;27.95;;;11.88;;
4569;SDS011;2297;51.442;6.996;2023-12-14T07:45:47;25.92;;;10.82;;
4569;SDS011;2297;51.442;6.996;2023-12-14T07:48:14;21.65;;;10.82;;
4569;SDS011;2297;51.442;6.996;2023-12-14T07:50:42;20.80;;;10.45;;
4569;SDS011;2297;51.442;6.996;2023-12-14T07:53:09;20.20;;;10.50;;
4569;SDS011;2297;51.442;6.996;2023-12-14T07:55:35;26.27;;;11.57;;
4569;SDS011;2297;51.442;6.996;2023-12-14T07:58:02;25.88;;;11.27;;
4569;SDS011;2297;51.442;6.996;2023-12-14T08:00:28;26.52;;;11.15;;
4569;SDS011;2297;51.442;6.996;2023-12-14T08:02:55;28.90;;;13.35;;
4569;SDS011;2297;51.442;6.996;2023-12-14T08:05:22;35.10;;;16.23;;
4569;SDS011;2297;51.442;6.996;2023-12-14T08:07:49;32.28;;;15.55;;
4569;SDS011;2297;51.442;6.996;2023-12-14T08:10:17;32.22;;;15.85;;
4569;SDS011;2297;51.442;6.996;2023-12-14T08:12:44;37.72;;;14.88;;
4569;SDS011;2297;51.442;6.996;2023-12-14T08:15:12;37.25;;;16.30;;
4569;SDS011;2297;51.442;6.996;2023-12-14T08:17:39;35.95;;;16.35;;
4569;SDS011;2297;51.442;6.996;2023-12-14T08:20:06;33.90;;;16.38;;
4569;SDS011;2297;51.442;6.996;2023-12-14T08:22:35;34.53;;;15.93;;
4569;SDS011;2297;51.442;6.996;2023-12-14T08:25:04;35.97;;;16.95;;
4569;SDS011;2297;51.442;6.996;2023-12-14T08:27:31;38.17;;;17.25;;
4569;SDS011;2297;51.442;6.996;2023-12-14T08:29:57;37.72;;;17.13;;
4569;SDS011;2297;51.442;6.996;2023-12-14T08:32:24;48.05;;;17.48;;
4569;SDS011;2297;51.442;6.996;2023-12-14T08:34:51;40.67;;;17.85;;
4569;SDS011;2297;51.442;6.996;2023-12-14T08:37:18;43.83;;;18.65;;
4569;SDS011;2297;51.442;6.996;2023-12-14T08:39:45;44.70;;;17.77;;
4569;SDS011;2297;51.442;6.996;2023-12-14T08:42:13;35.00;;;17.70;;
4569;SDS011;2297;51.442;6.996;2023-12-14T08:44:40;40.92;;;16.73;;
4569;SDS011;2297;51.442;6.996;2023-12-14T08:47:06;33.15;;;15.70;;
4569;SDS011;2297;51.442;6.996;2023-12-14T08:49:34;29.50;;;14.35;;
4569;SDS011;2297;51.442;6.996;2023-12-14T08:52:00;28.55;;;14.10;;
4569;SDS011;2297;51.442;6.996;2023-12-14T08:54:29;35.58;;;15.07;;
4569;SDS011;2297;51.442;6.996;2023-12-14T08:56:56;29.98;;;13.98;;
4569;SDS011;2297;51.442;6.996;2023-12-14T08:59:24;29.60;;;13.30;;
4569;SDS011;2297;51.442;6.996;2023-12-14T09:01:50;27.88;;;13.18;;
4569;SDS011;2297;51.442;6.996;2023-12-14T09:04:17;28.90;;;13.98;;
4569;SDS011;2297;51.442;6.996;2023-12-14T09:06:44;28.25;;;13.85;;
4569;SDS011;2297;51.442;6.996;2023-12-14T09:09:11;28.67;;;14.27;;
4569;SDS011;2297;51.442;6.996;2023-12-14T09:11:37;34.05;;;16.52;;
4569;SDS011;2297;51.442;6.996;2023-12-14T09:14:05;36.63;;;16.88;;
4569;SDS011;2297;51.442;6.996;2023-12-14T09:16:33;39.97;;;17.65;;
4569;SDS011;2297;51.442;6.996;2023-12-14T09:18:59;39.67;;;18.08;;
4569;SDS011;2297;51.442;6.996;2023-12-14T09:21:26;36.10;;;17.05;;
4569;SDS011;2297;51.442;6.996;2023-12-14T09:23:53;39.60;;;17.77;;
4569;SDS011;2297;51.442;6.996;2023-12-14T09:26:19;39.47;;;18.33;;
4569;SDS011;2297;51.442;6.996;2023-12-14T09:28:46;41.25;;;18.30;;
4569;SDS011;2297;51.442;6.996;2023-12-14T09:31:12;42.55;;;19.05;;
4569;SDS011;2297;51.442;6.996;2023-12-14T09:33:42;44.80;;;17.80;;
4569;SDS011;2297;51.442;6.996;2023-12-14T09:36:09;36.97;;;17.00;;
4569;SDS011;2297;51.442;6.996;2023-12-14T09:38:35;33.88;;;15.10;;
4569;SDS011;2297;51.442;6.996;2023-12-14T09:41:02;33.67;;;16.20;;
4569;SDS011;2297;51.442;6.996;2023-12-14T09:43:29;36.78;;;16.33;;
4569;SDS011;2297;51.442;6.996;2023-12-14T09:45:56;34.30;;;16.58;;
4569;SDS011;2297;51.442;6.996;2023-12-14T09:48:23;33.95;;;16.13;;
4569;SDS011;2297;51.442;6.996;2023-12-14T09:50:52;33.75;;;15.45;;
4569;SDS011;2297;51.442;6.996;2023-12-14T09:53:18;31.80;;;15.52;;
4569;SDS011;2297;51.442;6.996;2023-12-14T09:55:45;32.65;;;14.90;;
4569;SDS011;2297;51.442;6.996;2023-12-14T09:58:11;35.97;;;15.27;;
4569;SDS011;2297;51.442;6.996;2023-12-14T10:00:39;32.95;;;15.10;;
4569;SDS011;2297;51.442;6.996;2023-12-14T10:03:20;71.68;;;33.45;;
4569;SDS011;2297;51.442;6.996;2023-12-14T10:05:47;38.85;;;17.75;;
4569;SDS011;2297;51.442;6.996;2023-12-14T10:08:16;26.75;;;13.48;;
4569;SDS011;2297;51.442;6.996;2023-12-14T10:10:43;33.95;;;15.40;;
4569;SDS011;2297;51.442;6.996;2023-12-14T10:13:10;28.70;;;14.82;;
4569;SDS011;2297;51.442;6.996;2023-12-14T10:15:40;28.15;;;13.77;;
4569;SDS011;2297;51.442;6.996;2023-12-14T10:18:07;30.00;;;14.50;;
4569;SDS011;2297;51.442;6.996;2023-12-14T10:20:34;27.70;;;14.00;;
4569;SDS011;2297;51.442;6.996;2023-12-14T10:23:02;31.25;;;15.48;;
4569;SDS011;2297;51.442;6.996;2023-12-14T10:25:30;28.40;;;14.40;;
4569;SDS011;2297;51.442;6.996;2023-12-14T10:27:57;26.45;;;13.27;;
4569;SDS011;2297;51.442;6.996;2023-12-14T10:30:25;27.52;;;14.13;;
4569;SDS011;2297;51.442;6.996;2023-12-14T10:32:52;27.15;;;13.13;;
4569;SDS011;2297;51.442;6.996;2023-12-14T10:35:19;27.45;;;13.68;;
4569;SDS011;2297;51.442;6.996;2023-12-14T10:37:48;26.33;;;12.48;;
4569;SDS011;2297;51.442;6.996;2023-12-14T10:40:16;24.52;;;12.00;;
4569;SDS011;2297;51.442;6.996;2023-12-14T10:42:44;29.67;;;12.50;;
4569;SDS011;2297;51.442;6.996;2023-12-14T10:45:12;23.95;;;12.02;;
4569;SDS011;2297;51.442;6.996;2023-12-14T10:47:42;22.50;;;11.68;;
4569;SDS011;2297;51.442;6.996;2023-12-14T10:50:10;24.10;;;11.57;;
4569;SDS011;2297;51.442;6.996;2023-12-14T10:52:37;18.17;;;8.63;;
4569;SDS011;2297;51.442;6.996;2023-12-14T10:55:06;17.38;;;8.88;;
4569;SDS011;2297;51.442;6.996;2023-12-14T10:57:35;19.13;;;9.65;;
4569;SDS011;2297;51.442;6.996;2023-12-14T11:00:04;20.02;;;9.60;;
4569;SDS011;2297;51.442;6.996;2023-12-14T11:02:37;18.00;;;8.88;;
4569;SDS011;2297;51.442;6.996;2023-12-14T11:05:05;17.48;;;9.38;;
4569;SDS011;2297;51.442;6.996;2023-12-14T11:07:47;16.75;;;9.43;;
4569;SDS011;2297;51.442;6.996;2023-12-14T11:10:20;18.17;;;8.95;;
4569;SDS011;2297;51.442;6.996;2023-12-14T11:12:57;17.27;;;9.30;;
4569;SDS011;2297;51.442;6.996;2023-12-14T11:15:29;17.45;;;8.95;;
4569;SDS011;2297;51.442;6.996;2023-12-14T11:20:59;15.80;;;8.20;;
4569;SDS011;2297;51.442;6.996;2023-12-14T11:23:30;17.15;;;8.95;;
4569;SDS011;2297;51.442;6.996;2023-12-14T11:25:59;17.33;;;8.77;;
4569;SDS011;2297;51.442;6.996;2023-12-14T11:28:30;18.65;;;9.00;;
4569;SDS011;2297;51.442;6.996;2023-12-14T11:30:59;16.80;;;8.27;;
4569;SDS011;2297;51.442;6.996;2023-12-14T11:33:27;16.95;;;8.07;;
4569;SDS011;2297;51.442;6.996;2023-12-14T11:35:54;15.82;;;7.93;;
4569;SDS011;2297;51.442;6.996;2023-12-14T11:38:22;13.80;;;7.38;;
4569;SDS011;2297;51.442;6.996;2023-12-14T11:40:50;15.00;;;7.72;;
4569;SDS011;2297;51.442;6.996;2023-12-14T11:43:17;14.70;;;7.95;;
4569;SDS011;2297;51.442;6.996;2023-12-14T11:45:45;13.52;;;7.38;;
4569;SDS011;2297;51.442;6.996;2023-12-14T11:48:14;15.82;;;7.35;;
4569;SDS011;2297;51.442;6.996;2023-12-14T11:50:41;14.40;;;6.82;;
4569;SDS011;2297;51.442;6.996;2023-12-14T11:53:09;14.48;;;7.85;;
4569;SDS011;2297;51.442;6.996;2023-12-14T11:55:36;14.48;;;7.22;;
4569;SDS011;2297;51.442;6.996;2023-12-14T11:58:05;13.75;;;7.30;;
4569;SDS011;2297;51.442;6.996;2023-12-14T12:00:32;16.98;;;8.27;;
4569;SDS011;2297;51.442;6.996;2023-12-14T12:03:12;14.57;;;7.47;;
4569;SDS011;2297;51.442;6.996;2023-12-14T12:05:41;13.35;;;7.40;;
4569;SDS011;2297;51.442;6.996;2023-12-14T12:08:10;17.02;;;8.43;;
4569;SDS011;2297;51.442;6.996;2023-12-14T12:10:37;13.48;;;6.43;;
4569;SDS011;2297;51.442;6.996;2023-12-14T12:13:04;13.73;;;7.43;;
4569;SDS011;2297;51.442;6.996;2023-12-14T12:15:32;16.48;;;7.18;;
4569;SDS011;2297;51.442;6.996;2023-12-14T12:18:02;14.80;;;6.80;;
4569;SDS011;2297;51.442;6.996;2023-12-14T12:20:30;14.43;;;7.32;;
4569;SDS011;2297;51.442;6.996;2023-12-14T12:23:15;16.15;;;7.78;;
4569;SDS011;2297;51.442;6.996;2023-12-14T12:25:42;17.50;;;8.30;;
4569;SDS011;2297;51.442;6.996;2023-12-14T12:28:09;13.98;;;7.50;;
4569;SDS011;2297;51.442;6.996;2023-12-14T12:30:35;15.50;;;7.15;;
4569;SDS011;2297;51.442;6.996;2023-12-14T12:33:02;12.85;;;7.20;;
4569;SDS011;2297;51.442;6.996;2023-12-14T12:35:30;15.32;;;6.78;;
4569;SDS011;2297;51.442;6.996;2023-12-14T12:37:58;15.80;;;7.72;;
4569;SDS011;2297;51.442;6.996;2023-12-14T12:40:25;16.42;;;8.75;;
4569;SDS011;2297;51.442;6.996;2023-12-14T12:42:52;16.13;;;8.05;;
4569;SDS011;2297;51.442;6.996;2023-12-14T12:45:18;13.95;;;8.02;;
4569;SDS011;2297;51.442;6.996;2023-12-14T12:47:59;16.23;;;7.93;;
4569;SDS011;2297;51.442;6.996;2023-12-14T12:50:28;13.63;;;6.95;;
4569;SDS011;2297;51.442;6.996;2023-12-14T12:52:55;17.52;;;8.05;;
4569;SDS011;2297;51.442;6.996;2023-12-14T12:55:22;13.15;;;7.68;;
4569;SDS011;2297;51.442;6.996;2023-12-14T12:57:49;14.68;;;6.78;;
4569;SDS011;2297;51.442;6.996;2023-12-14T13:00:15;12.73;;;6.43;;
4569;SDS011;2297;51.442;6.996;2023-12-14T13:02:43;15.70;;;6.95;;
4569;SDS011;2297;51.442;6.996;2023-12-14T13:05:11;12.70;;;7.15;;
4569;SDS011;2297;51.442;6.996;2023-12-14T13:07:38;12.30;;;5.90;;
4569;SDS011;2297;51.442;6.996;2023-12-14T13:10:06;12.45;;;6.60;;
4569;SDS011;2297;51.442;6.996;2023-12-14T13:12:34;12.18;;;6.50;;
4569;SDS011;2297;51.442;6.996;2023-12-14T13:15:00;13.10;;;6.05;;
4569;SDS011;2297;51.442;6.996;2023-12-14T13:17:27;12.57;;;7.00;;
4569;SDS011;2297;51.442;6.996;2023-12-14T13:19:54;12.27;;;6.25;;
4569;SDS011;2297;51.442;6.996;2023-12-14T13:22:21;14.55;;;7.50;;
4569;SDS011;2297;51.442;6.996;2023-12-14T13:24:47;15.02;;;6.32;;
4569;SDS011;2297;51.442;6.996;2023-12-14T13:27:16;12.48;;;6.60;;
4569;SDS011;2297;51.442;6.996;2023-12-14T13:29:42;10.00;;;5.63;;
4569;SDS011;2297;51.442;6.996;2023-12-14T13:32:10;18.20;;;7.07;;
4569;SDS011;2297;51.442;6.996;2023-12-14T13:34:37;11.38;;;6.32;;
4569;SDS011;2297;51.442;6.996;2023-12-14T13:37:03;12.75;;;6.40;;
4569;SDS011;2297;51.442;6.996;2023-12-14T13:39:31;11.25;;;5.63;;
4569;SDS011;2297;51.442;6.996;2023-12-14T13:41:59;11.77;;;6.28;;
4569;SDS011;2297;51.442;6.996;2023-12-14T13:44:28;10.77;;;5.93;;
4569;SDS011;2297;51.442;6.996;2023-12-14T13:46:54;10.40;;;5.60;;
4569;SDS011;2297;51.442;6.996;2023-12-14T13:49:21;10.13;;;5.50;;
4569;SDS011;2297;51.442;6.996;2023-12-14T13:51:47;11.23;;;6.07;;
4569;SDS011;2297;51.442;6.996;2023-12-14T13:54:14;12.27;;;6.43;;
4569;SDS011;2297;51.442;6.996;2023-12-14T13:56:41;11.52;;;5.93;;
4569;SDS011;2297;51.442;6.996;2023-12-14T13:59:07;11.98;;;6.18;;
4569;SDS011;2297;51.442;6.996;2023-12-14T14:01:35;14.35;;;6.78;;
4569;SDS011;2297;51.442;6.996;2023-12-14T14:04:03;12.88;;;6.30;;
4569;SDS011;2297;51.442;6.996;2023-12-14T14:06:31;11.57;;;6.03;;
4569;SDS011;2297;51.442;6.996;2023-12-14T14:08:57;12.00;;;6.75;;
4569;SDS011;2297;51.442;6.996;2023-12-14T14:11:24;12.05;;;6.53;;
4569;SDS011;2297;51.442;6.996;2023-12-14T14:13:51;14.82;;;7.25;;
4569;SDS011;2297;51.442;6.996;2023-12-14T14:16:17;15.15;;;6.88;;
4569;SDS011;2297;51.442;6.996;2023-12-14T14:18:47;13.07;;;6.85;;
4569;SDS011;2297;51.442;6.996;2023-12-14T14:21:13;13.35;;;7.40;;
4569;SDS011;2297;51.442;6.996;2023-12-14T14:23:40;11.77;;;6.50;;
4569;SDS011;2297;51.442;6.996;2023-12-14T14:26:07;14.98;;;6.90;;
4569;SDS011;2297;51.442;6.996;2023-12-14T14:28:34;14.63;;;6.70;;
4569;SDS011;2297;51.442;6.996;2023-12-14T14:31:00;15.07;;;7.88;;
4569;SDS011;2297;51.442;6.996;2023-12-14T14:33:27;12.55;;;6.32;;
4569;SDS011;2297;51.442;6.996;2023-12-14T14:35:55;13.82;;;7.32;;
4569;SDS011;2297;51.442;6.996;2023-12-14T14:38:21;13.90;;;7.57;;
4569;SDS011;2297;51.442;6.996;2023-12-14T14:40:48;18.27;;;8.15;;
4569;SDS011;2297;51.442;6.996;2023-12-14T14:43:15;14.32;;;7.90;;
4569;SDS011;2297;51.442;6.996;2023-12-14T14:45:41;17.73;;;7.82;;
4569;SDS011;2297;51.442;6.996;2023-12-14T14:48:09;13.57;;;7.68;;
4569;SDS011;2297;51.442;6.996;2023-12-14T14:50:35;15.05;;;7.28;;
4569;SDS011;2297;51.442;6.996;2023-12-14T14:53:04;14.32;;;6.95;;
4569;SDS011;2297;51.442;6.996;2023-12-14T14:55:30;13.27;;;7.05;;
4569;SDS011;2297;51.442;6.996;2023-12-14T14:57:58;14.13;;;7.43;;
4569;SDS011;2297;51.442;6.996;2023-12-14T15:00:24;14.48;;;7.93;;